Time;durP1;ratioP1;P1;durP2;ratioP2;P2;SDS_P1;SDS_P2;PMS_P1;PMS_P2;Temp;Humidity;BMP_temperature;BMP_pressure;BME280_temperature;BME280_humidity;BME280_pressure;Samples;Min_cycle;Max_cycle;Signal;HPM_P1;HPM_P2
2022/11/16 00:01:55;;;;;;;8.20;6.93;;;;;;;;;;5013473;28;20176;-64
2022/11/16 00:04:21;;;;;;;7.60;6.67;;;;;;;;;;5013729;28;20187;-64
2022/11/16 00:06:49;;;;;;;9.90;7.53;;;;;;;;;;5013258;28;20211;-63
2022/11/16 00:09:21;;;;;;;8.83;7.37;;;;;;;;;;5013598;28;20238;-64
2022/11/16 00:11:48;;;;;;;9.20;7.77;;;;;;;;;;5013811;28;20168;-64
2022/11/16 00:14:14;;;;;;;17.90;10.67;;;;;;;;;;5013550;28;20297;-64
2022/11/16 00:16:40;;;;;;;18.80;10.63;;;;;;;;;;5013944;28;20279;-64
2022/11/16 00:19:06;;;;;;;16.43;9.83;;;;;;;;;;5013552;28;20184;-64
2022/11/16 00:21:33;;;;;;;23.23;14.87;;;;;;;;;;5013342;28;20187;-64
2022/11/16 00:23:59;;;;;;;14.60;11.23;;;;;;;;;;5012714;28;20568;-63
2022/11/16 00:26:25;;;;;;;13.83;12.10;;;;;;;;;;5013405;28;20200;-64
2022/11/16 00:28:51;;;;;;;13.20;8.67;;;;;;;;;;5012196;28;20270;-63
2022/11/16 00:31:18;;;;;;;13.47;9.67;;;;;;;;;;5013289;28;20204;-63
2022/11/16 00:33:44;;;;;;;13.60;10.43;;;;;;;;;;5012100;28;20218;-63
2022/11/16 00:36:11;;;;;;;15.10;11.17;;;;;;;;;;5013327;28;20239;-63
2022/11/16 00:38:37;;;;;;;20.97;12.43;;;;;;;;;;5012120;28;20183;-64
2022/11/16 00:41:03;;;;;;;22.23;13.87;;;;;;;;;;5013547;28;20242;-64
2022/11/16 00:43:29;;;;;;;20.90;12.17;;;;;;;;;;5013530;28;20176;-64
2022/11/16 00:45:55;;;;;;;15.50;11.17;;;;;;;;;;5017015;28;20241;-64
2022/11/16 00:48:21;;;;;;;19.37;10.70;;;;;;;;;;5017004;28;20184;-64
2022/11/16 00:50:48;;;;;;;16.10;11.23;;;;;;;;;;5017014;28;20207;-64
2022/11/16 00:53:16;;;;;;;16.67;11.33;;;;;;;;;;5015731;28;20187;-64
2022/11/16 00:55:42;;;;;;;15.80;9.83;;;;;;;;;;5015571;28;20217;-63
2022/11/16 00:58:08;;;;;;;14.73;10.67;;;;;;;;;;5017489;28;20234;-63
2022/11/16 01:00:34;;;;;;;18.77;12.90;;;;;;;;;;5016956;28;20180;-64
2022/11/16 01:03:00;;;;;;;13.57;9.77;;;;;;;;;;5016826;28;20215;-63
2022/11/16 01:05:26;;;;;;;14.43;9.73;;;;;;;;;;5017096;28;20187;-64
2022/11/16 01:07:52;;;;;;;13.97;8.80;;;;;;;;;;5016688;28;20758;-64
2022/11/16 01:10:20;;;;;;;11.57;8.97;;;;;;;;;;5056465;22;20231;-70
2022/11/16 01:12:47;;;;;;;16.03;10.10;;;;;;;;;;5036526;28;20643;-71
2022/11/16 01:15:13;;;;;;;15.03;10.70;;;;;;;;;;5036363;28;20229;-71
2022/11/16 01:17:39;;;;;;;16.23;12.23;;;;;;;;;;5034934;28;20697;-71
2022/11/16 01:20:06;;;;;;;15.83;10.97;;;;;;;;;;5034762;28;20522;-68
2022/11/16 01:22:36;;;;;;;16.07;10.27;;;;;;;;;;5036899;28;20183;-69
2022/11/16 01:25:02;;;;;;;19.27;11.90;;;;;;;;;;5034872;28;20273;-69
2022/11/16 01:27:28;;;;;;;20.67;13.77;;;;;;;;;;5035983;28;20686;-68
2022/11/16 01:29:54;;;;;;;17.03;10.23;;;;;;;;;;5035777;28;20209;-68
2022/11/16 01:32:20;;;;;;;18.00;11.27;;;;;;;;;;5034624;28;20175;-69
2022/11/16 01:34:46;;;;;;;16.33;10.57;;;;;;;;;;5034494;28;20207;-69
2022/11/16 01:37:11;;;;;;;18.93;11.63;;;;;;;;;;5035714;28;20167;-68
2022/11/16 01:39:38;;;;;;;15.80;10.07;;;;;;;;;;5034275;28;20207;-71
2022/11/16 01:42:04;;;;;;;23.87;11.30;;;;;;;;;;5035675;28;20183;-69
2022/11/16 01:44:32;;;;;;;21.17;12.80;;;;;;;;;;5035606;28;20176;-69
2022/11/16 01:46:59;;;;;;;11.40;9.57;;;;;;;;;;5035639;28;20183;-69
2022/11/16 01:49:27;;;;;;;10.60;9.50;;;;;;;;;;5035706;28;20199;-69
2022/11/16 01:51:56;;;;;;;11.20;9.20;;;;;;;;;;5034265;28;20229;-69
2022/11/16 01:54:22;;;;;;;13.70;9.50;;;;;;;;;;5034811;28;20207;-69
2022/11/16 01:56:48;;;;;;;13.07;10.90;;;;;;;;;;5034000;28;20263;-69
2022/11/16 01:59:14;;;;;;;14.83;10.53;;;;;;;;;;5033997;28;20285;-69
2022/11/16 02:01:40;;;;;;;15.97;12.00;;;;;;;;;;5034247;28;20179;-69
2022/11/16 02:04:09;;;;;;;22.97;16.83;;;;;;;;;;5035704;28;20524;-68
2022/11/16 02:06:44;;;;;;;21.67;15.60;;;;;;;;;;5035023;28;20267;-68
2022/11/16 02:12:44;;;;;;;15.63;13.93;;;;;;;;;;5012413;28;20206;-69
2022/11/16 02:15:13;;;;;;;13.27;11.73;;;;;;;;;;5033781;28;20206;-68
2022/11/16 02:17:51;;;;;;;15.47;11.43;;;;;;;;;;5033699;28;20266;-69
2022/11/16 02:20:32;;;;;;;17.37;12.83;;;;;;;;;;5035190;28;20683;-67
2022/11/16 02:23:08;;;;;;;21.70;15.77;;;;;;;;;;5033824;28;20592;-69
2022/11/16 02:25:57;;;;;;;19.13;14.60;;;;;;;;;;5035731;28;20171;-68
2022/11/16 02:28:35;;;;;;;15.77;12.90;;;;;;;;;;5036225;28;20173;-68
2022/11/16 02:31:04;;;;;;;15.33;12.43;;;;;;;;;;5035923;28;20206;-69
2022/11/16 02:33:33;;;;;;;14.10;12.70;;;;;;;;;;5036208;28;20187;-69
2022/11/16 02:36:00;;;;;;;15.93;12.67;;;;;;;;;;5036452;28;20203;-69
2022/11/16 02:38:27;;;;;;;18.20;13.73;;;;;;;;;;5033979;28;20179;-69
2022/11/16 02:40:56;;;;;;;44.60;22.53;;;;;;;;;;5033375;28;20213;-67
2022/11/16 02:43:27;;;;;;;46.27;23.23;;;;;;;;;;5034755;28;20190;-69
2022/11/16 02:45:55;;;;;;;20.70;14.87;;;;;;;;;;5033258;28;20557;-69
2022/11/16 02:48:23;;;;;;;14.87;13.07;;;;;;;;;;5034974;28;20175;-69
2022/11/16 02:50:51;;;;;;;17.30;13.20;;;;;;;;;;5033108;28;20207;-69
2022/11/16 02:53:17;;;;;;;18.40;13.73;;;;;;;;;;5033184;28;20183;-69
2022/11/16 02:55:43;;;;;;;16.07;13.60;;;;;;;;;;5034354;28;20222;-69
2022/11/16 02:58:10;;;;;;;16.90;13.37;;;;;;;;;;5035727;28;20301;-69
2022/11/16 03:00:36;;;;;;;24.53;13.60;;;;;;;;;;5034147;28;20195;-69
2022/11/16 03:03:15;;;;;;;16.70;13.43;;;;;;;;;;5033014;28;20587;-70
2022/11/16 03:05:45;;;;;;;18.00;13.43;;;;;;;;;;5034096;28;20528;-68
2022/11/16 03:08:17;;;;;;;17.43;14.33;;;;;;;;;;5034093;28;20301;-69
2022/11/16 03:13:32;;;;;;;19.93;14.33;;;;;;;;;;5034449;28;20170;-70
2022/11/16 03:16:00;;;;;;;15.97;14.27;;;;;;;;;;5034421;28;20656;-70
2022/11/16 03:18:28;;;;;;;18.83;14.63;;;;;;;;;;5033909;28;20183;-69
2022/11/16 03:20:59;;;;;;;17.73;13.93;;;;;;;;;;5033892;28;20570;-69
2022/11/16 03:23:25;;;;;;;14.53;12.93;;;;;;;;;;5032572;28;20175;-69
2022/11/16 03:25:52;;;;;;;16.70;14.27;;;;;;;;;;5032552;28;20644;-70
2022/11/16 03:28:23;;;;;;;19.73;14.37;;;;;;;;;;5032306;28;20635;-69
2022/11/16 03:30:50;;;;;;;18.10;14.10;;;;;;;;;;5033605;28;20235;-68
2022/11/16 03:33:25;;;;;;;16.53;13.63;;;;;;;;;;5033829;28;20175;-69
2022/11/16 03:35:54;;;;;;;16.60;14.37;;;;;;;;;;5032279;28;20202;-70
2022/11/16 03:38:21;;;;;;;16.87;14.57;;;;;;;;;;5033580;28;20679;-69
2022/11/16 03:40:48;;;;;;;14.53;12.70;;;;;;;;;;5032134;28;20195;-69
2022/11/16 03:43:15;;;;;;;16.33;14.50;;;;;;;;;;5032317;28;20187;-68
2022/11/16 03:45:42;;;;;;;17.43;14.97;;;;;;;;;;5032199;28;20655;-69
2022/11/16 03:48:07;;;;;;;16.87;14.57;;;;;;;;;;5033101;28;20186;-69
2022/11/16 03:50:33;;;;;;;16.97;14.50;;;;;;;;;;5034080;28;20207;-68
2022/11/16 03:52:59;;;;;;;16.60;13.70;;;;;;;;;;5033464;28;20182;-70
2022/11/16 03:55:25;;;;;;;15.63;14.00;;;;;;;;;;5033500;28;20549;-69
2022/11/16 03:57:51;;;;;;;18.20;14.57;;;;;;;;;;5031961;28;20182;-69
2022/11/16 04:00:17;;;;;;;17.60;14.33;;;;;;;;;;5033220;28;20198;-70
2022/11/16 04:02:43;;;;;;;17.67;14.40;;;;;;;;;;5033436;28;20220;-69
2022/11/16 04:24:30;;;;;;;21.80;15.87;;;;;;;;;;5033279;28;20577;-69
2022/11/16 04:29:47;;;;;;;21.80;16.80;;;;;;;;;;5033256;28;20237;-70
2022/11/16 04:37:48;;;;;;;20.43;16.27;;;;;;;;;;5033216;28;20175;-69
2022/11/16 04:40:15;;;;;;;17.00;14.63;;;;;;;;;;5034453;28;20209;-69
2022/11/16 04:42:41;;;;;;;14.90;12.70;;;;;;;;;;5031682;28;20210;-69
2022/11/16 04:48:12;;;;;;;15.03;12.63;;;;;;;;;;4991242;28;20203;-69
2022/11/16 04:50:39;;;;;;;17.50;12.20;;;;;;;;;;4991369;28;20724;-69
2022/11/16 04:53:05;;;;;;;14.07;12.40;;;;;;;;;;5011103;28;20191;-69
2022/11/16 04:55:32;;;;;;;15.30;12.40;;;;;;;;;;5032851;28;20681;-69
2022/11/16 04:57:58;;;;;;;16.17;12.27;;;;;;;;;;5031247;28;20174;-69
2022/11/16 05:00:24;;;;;;;14.07;12.17;;;;;;;;;;5031201;28;20272;-69
2022/11/16 05:02:50;;;;;;;15.00;12.17;;;;;;;;;;5032536;28;20699;-69
2022/11/16 05:05:16;;;;;;;13.90;12.17;;;;;;;;;;5031262;28;20175;-69
2022/11/16 05:07:42;;;;;;;15.87;12.53;;;;;;;;;;5032485;28;20263;-69
2022/11/16 05:10:08;;;;;;;14.53;11.97;;;;;;;;;;5031768;28;20325;-69
2022/11/16 05:12:34;;;;;;;12.30;11.00;;;;;;;;;;5032724;28;20182;-69
2022/11/16 05:15:01;;;;;;;15.17;11.77;;;;;;;;;;5032530;28;20207;-69
2022/11/16 05:17:27;;;;;;;17.70;11.70;;;;;;;;;;5031367;28;20179;-69
2022/11/16 05:22:38;;;;;;;14.13;10.80;;;;;;;;;;5032987;28;20174;-69
2022/11/16 05:25:05;;;;;;;12.37;10.40;;;;;;;;;;5032697;28;20178;-69
2022/11/16 05:27:31;;;;;;;13.60;9.97;;;;;;;;;;5032771;28;20182;-69
2022/11/16 05:29:57;;;;;;;12.63;10.23;;;;;;;;;;5031936;28;20206;-69
2022/11/16 05:32:23;;;;;;;13.17;9.90;;;;;;;;;;5041390;28;20182;-69
2022/11/16 05:34:49;;;;;;;10.93;9.83;;;;;;;;;;5038601;28;20203;-69
2022/11/16 05:37:16;;;;;;;14.93;10.20;;;;;;;;;;5035557;28;20653;-69
2022/11/16 05:39:42;;;;;;;13.53;8.97;;;;;;;;;;5036738;28;20199;-69
2022/11/16 05:42:08;;;;;;;12.03;9.43;;;;;;;;;;5035989;28;20187;-69
2022/11/16 05:44:34;;;;;;;9.77;8.27;;;;;;;;;;5034983;28;20190;-69
2022/11/16 05:47:00;;;;;;;11.43;8.23;;;;;;;;;;5035834;28;20640;-69
2022/11/16 05:49:26;;;;;;;11.70;8.20;;;;;;;;;;5035777;28;20203;-69
2022/11/16 05:51:53;;;;;;;16.97;8.17;;;;;;;;;;5035952;28;20178;-69
2022/11/16 05:54:20;;;;;;;15.17;9.77;;;;;;;;;;5034236;28;20191;-70
2022/11/16 05:56:47;;;;;;;14.83;7.73;;;;;;;;;;5035588;28;20175;-70
2022/11/16 05:59:14;;;;;;;13.00;7.47;;;;;;;;;;5034130;28;20290;-69
2022/11/16 06:01:40;;;;;;;17.30;9.77;;;;;;;;;;5035467;28;20644;-69
2022/11/16 06:04:06;;;;;;;18.80;8.47;;;;;;;;;;5034247;28;20232;-70
2022/11/16 06:06:32;;;;;;;19.80;8.67;;;;;;;;;;5035875;28;20175;-70
2022/11/16 06:08:58;;;;;;;17.70;8.40;;;;;;;;;;5035142;28;20179;-70
2022/11/16 06:11:24;;;;;;;14.87;8.00;;;;;;;;;;5033938;28;20171;-69
2022/11/16 06:13:51;;;;;;;15.77;7.67;;;;;;;;;;5033865;28;20187;-70
2022/11/16 06:16:16;;;;;;;17.13;7.87;;;;;;;;;;5035673;28;20545;-70
2022/11/16 06:18:44;;;;;;;12.70;7.77;;;;;;;;;;5035073;28;20172;-68
2022/11/16 06:21:10;;;;;;;13.23;7.90;;;;;;;;;;5035130;28;20199;-69
2022/11/16 06:23:36;;;;;;;12.90;7.67;;;;;;;;;;5035573;28;20207;-69
2022/11/16 06:26:03;;;;;;;14.43;8.43;;;;;;;;;;5035170;28;20193;-70
2022/11/16 06:28:29;;;;;;;12.73;8.37;;;;;;;;;;5033851;28;20721;-70
2022/11/16 06:30:55;;;;;;;15.53;7.87;;;;;;;;;;5033706;28;20207;-69
2022/11/16 06:33:21;;;;;;;14.27;8.10;;;;;;;;;;5035005;28;20258;-69
2022/11/16 06:35:47;;;;;;;12.20;7.10;;;;;;;;;;5034877;28;20290;-69
2022/11/16 06:38:17;;;;;;;15.27;7.97;;;;;;;;;;5035343;28;20216;-70
2022/11/16 06:40:44;;;;;;;13.17;7.67;;;;;;;;;;5034216;28;20191;-70
2022/11/16 06:43:10;;;;;;;14.33;7.27;;;;;;;;;;5034575;28;20263;-70
2022/11/16 06:45:37;;;;;;;15.50;8.03;;;;;;;;;;5035212;28;20651;-69
2022/11/16 06:48:03;;;;;;;10.13;7.70;;;;;;;;;;5034788;28;20184;-69
2022/11/16 06:50:28;;;;;;;13.23;7.70;;;;;;;;;;5034661;28;20528;-69
2022/11/16 06:52:54;;;;;;;17.57;7.43;;;;;;;;;;5033058;28;20179;-69
2022/11/16 06:55:20;;;;;;;10.50;6.30;;;;;;;;;;5034141;28;20249;-69
2022/11/16 06:57:46;;;;;;;11.63;7.50;;;;;;;;;;5034195;28;20186;-69
2022/11/16 07:00:13;;;;;;;11.37;7.60;;;;;;;;;;5032841;28;20545;-69
2022/11/16 07:02:39;;;;;;;14.33;8.00;;;;;;;;;;5034227;28;20179;-69
2022/11/16 07:05:06;;;;;;;15.07;7.73;;;;;;;;;;5032917;28;20186;-68
2022/11/16 07:07:32;;;;;;;13.97;7.47;;;;;;;;;;5032723;28;20679;-69
2022/11/16 07:09:58;;;;;;;11.80;7.60;;;;;;;;;;5033749;28;20383;-69
2022/11/16 07:12:24;;;;;;;11.80;8.00;;;;;;;;;;5034008;28;20190;-69
2022/11/16 07:14:50;;;;;;;13.57;7.80;;;;;;;;;;5034775;28;20203;-69
2022/11/16 07:17:16;;;;;;;12.23;7.67;;;;;;;;;;5033051;28;20209;-70
2022/11/16 07:19:42;;;;;;;10.60;7.50;;;;;;;;;;5033919;28;20191;-69
2022/11/16 07:22:08;;;;;;;14.97;7.67;;;;;;;;;;5033775;28;20176;-68
2022/11/16 07:24:34;;;;;;;9.00;6.90;;;;;;;;;;5032363;28;20218;-70
2022/11/16 07:27:00;;;;;;;12.77;7.40;;;;;;;;;;5032228;28;20187;-69
2022/11/16 07:29:26;;;;;;;15.10;7.53;;;;;;;;;;5033885;28;20653;-70
2022/11/16 07:31:52;;;;;;;10.97;6.87;;;;;;;;;;5033551;28;20202;-69
2022/11/16 07:34:18;;;;;;;10.97;6.70;;;;;;;;;;5033586;28;20644;-69
2022/11/16 07:36:44;;;;;;;13.83;7.63;;;;;;;;;;5050134;22;20268;-67
2022/11/16 07:39:09;;;;;;;10.40;6.57;;;;;;;;;;5033783;28;20171;-66
2022/11/16 07:41:41;;;;;;;10.80;6.27;;;;;;;;;;5032511;28;20238;-65
2022/11/16 07:44:07;;;;;;;19.20;6.60;;;;;;;;;;5033964;28;20187;-67
2022/11/16 07:46:34;;;;;;;12.80;6.13;;;;;;;;;;5032253;28;20257;-66
2022/11/16 07:49:00;;;;;;;8.57;5.30;;;;;;;;;;5033464;28;20303;-65
2022/11/16 07:51:26;;;;;;;13.23;6.10;;;;;;;;;;5033407;28;20266;-66
2022/11/16 07:53:54;;;;;;;11.73;6.30;;;;;;;;;;5033245;28;20183;-66
2022/11/16 07:56:20;;;;;;;12.93;5.70;;;;;;;;;;5033349;28;20207;-68
2022/11/16 07:58:46;;;;;;;17.10;6.20;;;;;;;;;;5033529;28;20183;-68
2022/11/16 08:01:13;;;;;;;12.83;5.37;;;;;;;;;;5033696;28;20221;-66
2022/11/16 08:03:40;;;;;;;14.67;6.17;;;;;;;;;;5033653;28;20228;-66
2022/11/16 08:06:07;;;;;;;12.27;5.50;;;;;;;;;;5033493;28;20222;-66
2022/11/16 08:08:33;;;;;;;11.30;4.70;;;;;;;;;;5033555;28;20179;-66
2022/11/16 08:11:00;;;;;;;10.57;5.33;;;;;;;;;;5033455;28;20219;-66
2022/11/16 08:13:26;;;;;;;12.30;5.03;;;;;;;;;;5032203;28;20186;-66
2022/11/16 08:15:52;;;;;;;13.80;5.73;;;;;;;;;;5033215;28;20286;-65
2022/11/16 08:18:19;;;;;;;13.10;5.63;;;;;;;;;;5033432;28;20175;-65
2022/11/16 08:20:45;;;;;;;11.00;5.30;;;;;;;;;;5033749;28;20179;-66
2022/11/16 08:23:11;;;;;;;14.33;5.10;;;;;;;;;;5033235;28;20640;-66
2022/11/16 08:25:37;;;;;;;10.00;4.60;;;;;;;;;;5033239;28;20184;-66
2022/11/16 08:28:03;;;;;;;9.20;4.50;;;;;;;;;;5032010;28;20317;-66
2022/11/16 08:30:29;;;;;;;14.13;4.93;;;;;;;;;;5032061;28;20268;-66
2022/11/16 08:32:55;;;;;;;14.07;4.67;;;;;;;;;;5033322;28;20648;-66
2022/11/16 08:35:22;;;;;;;9.27;4.23;;;;;;;;;;5033334;28;20297;-68
2022/11/16 08:37:48;;;;;;;14.27;3.90;;;;;;;;;;5033073;28;20203;-67
2022/11/16 08:40:14;;;;;;;12.97;4.20;;;;;;;;;;5033082;28;20179;-67
2022/11/16 08:42:40;;;;;;;11.03;3.50;;;;;;;;;;5032926;28;20179;-67
2022/11/16 08:45:06;;;;;;;11.43;4.13;;;;;;;;;;5033138;28;20183;-67
2022/11/16 08:47:32;;;;;;;12.37;3.80;;;;;;;;;;5032949;28;20210;-66
2022/11/16 08:49:58;;;;;;;13.97;4.40;;;;;;;;;;5031874;28;20187;-67
2022/11/16 08:52:24;;;;;;;10.67;4.43;;;;;;;;;;5031581;28;20273;-67
2022/11/16 08:54:50;;;;;;;14.70;4.67;;;;;;;;;;5032842;28;20207;-67
2022/11/16 08:57:16;;;;;;;9.37;3.83;;;;;;;;;;5032730;28;20211;-67
2022/11/16 08:59:41;;;;;;;11.53;4.00;;;;;;;;;;5033102;28;20183;-67
2022/11/16 09:02:08;;;;;;;15.83;4.90;;;;;;;;;;5033025;28;20615;-66
2022/11/16 09:04:34;;;;;;;10.40;4.03;;;;;;;;;;5033295;28;20565;-67
2022/11/16 09:07:00;;;;;;;12.13;3.90;;;;;;;;;;5036736;28;20234;-69
2022/11/16 09:09:26;;;;;;;13.53;4.00;;;;;;;;;;5036605;28;20636;-67
2022/11/16 09:11:54;;;;;;;8.33;3.67;;;;;;;;;;5035356;28;20277;-68
2022/11/16 09:14:20;;;;;;;14.97;5.20;;;;;;;;;;5036340;28;20179;-66
2022/11/16 09:16:46;;;;;;;12.87;5.23;;;;;;;;;;5036371;28;20256;-68
2022/11/16 09:19:13;;;;;;;15.00;5.53;;;;;;;;;;5035074;28;20266;-66
2022/11/16 09:21:39;;;;;;;12.73;4.60;;;;;;;;;;5036680;28;20179;-67
2022/11/16 09:24:05;;;;;;;13.13;4.13;;;;;;;;;;5036404;28;20179;-66
2022/11/16 09:26:31;;;;;;;9.07;3.37;;;;;;;;;;5036558;28;20194;-67
2022/11/16 09:29:02;;;;;;;12.53;3.57;;;;;;;;;;5036114;28;20233;-67
2022/11/16 09:31:28;;;;;;;8.97;3.27;;;;;;;;;;5036116;28;20182;-67
2022/11/16 09:33:57;;;;;;;9.93;3.50;;;;;;;;;;5036177;28;20186;-67
2022/11/16 09:36:23;;;;;;;7.80;2.73;;;;;;;;;;5036012;28;20217;-67
2022/11/16 09:38:49;;;;;;;11.67;3.23;;;;;;;;;;5035915;28;20646;-66
2022/11/16 09:41:15;;;;;;;16.67;3.70;;;;;;;;;;5036202;28;20256;-66
2022/11/16 09:44:13;;;;;;;10.53;3.77;;;;;;;;;;5035907;28;20183;-67
2022/11/16 09:46:41;;;;;;;13.77;3.63;;;;;;;;;;5002803;28;20242;-68
2022/11/16 09:49:11;;;;;;;10.47;3.53;;;;;;;;;;5035992;28;20179;-67
2022/11/16 09:51:39;;;;;;;10.83;3.90;;;;;;;;;;5034597;28;20175;-67
2022/11/16 09:54:07;;;;;;;14.63;3.83;;;;;;;;;;5036247;28;20258;-67
2022/11/16 09:56:36;;;;;;;11.13;4.03;;;;;;;;;;5035477;28;20687;-66
2022/11/16 09:59:11;;;;;;;9.57;3.87;;;;;;;;;;5035501;28;20237;-67
2022/11/16 10:01:37;;;;;;;17.73;3.33;;;;;;;;;;5036195;28;20638;-66
2022/11/16 10:04:09;;;;;;;7.57;3.10;;;;;;;;;;5035637;28;20171;-65
2022/11/16 10:06:54;;;;;;;12.03;3.80;;;;;;;;;;5035575;28;20278;-64
2022/11/16 10:09:20;;;;;;;12.77;3.60;;;;;;;;;;5034162;28;20190;-64
2022/11/16 10:11:46;;;;;;;8.13;3.03;;;;;;;;;;5035415;28;20678;-66
2022/11/16 10:14:31;;;;;;;11.80;2.83;;;;;;;;;;5035416;28;20175;-66
2022/11/16 10:17:05;;;;;;;8.83;3.27;;;;;;;;;;5033447;28;20293;-66
2022/11/16 10:19:53;;;;;;;8.53;2.97;;;;;;;;;;5034174;28;20175;-66
2022/11/16 10:22:31;;;;;;;9.87;2.67;;;;;;;;;;5035912;28;20180;-65
2022/11/16 10:24:58;;;;;;;11.17;2.70;;;;;;;;;;5035207;28;20257;-66
2022/11/16 10:27:33;;;;;;;8.40;2.87;;;;;;;;;;5035158;28;20206;-66
2022/11/16 10:30:08;;;;;;;8.37;3.03;;;;;;;;;;5035267;28;20240;-63
2022/11/16 10:32:37;;;;;;;7.73;2.50;;;;;;;;;;5035264;28;20186;-63
2022/11/16 10:35:08;;;;;;;5.30;3.03;;;;;;;;;;5035021;28;20208;-62
2022/11/16 10:37:35;;;;;;;9.43;2.63;;;;;;;;;;5033839;28;20297;-63
2022/11/16 10:40:02;;;;;;;8.57;2.77;;;;;;;;;;5035460;28;20171;-63
2022/11/16 10:42:31;;;;;;;7.67;2.90;;;;;;;;;;5033781;28;20639;-63
2022/11/16 10:45:03;;;;;;;12.37;3.27;;;;;;;;;;5033813;28;20189;-63
2022/11/16 10:47:37;;;;;;;6.47;2.83;;;;;;;;;;5034018;28;20222;-64
2022/11/16 10:50:21;;;;;;;8.27;3.03;;;;;;;;;;5035219;28;20178;-65
2022/11/16 10:52:47;;;;;;;6.77;3.03;;;;;;;;;;5034815;28;20190;-64
2022/11/16 10:55:14;;;;;;;10.17;3.03;;;;;;;;;;5035148;28;20668;-64
2022/11/16 10:57:58;;;;;;;8.40;2.90;;;;;;;;;;5034816;28;20547;-64
2022/11/16 11:00:39;;;;;;;8.20;2.43;;;;;;;;;;5033128;28;20202;-64
2022/11/16 11:03:05;;;;;;;8.60;2.87;;;;;;;;;;5034648;28;20172;-64
2022/11/16 11:05:31;;;;;;;9.43;3.03;;;;;;;;;;5032992;28;20232;-64
2022/11/16 11:08:01;;;;;;;9.30;2.70;;;;;;;;;;5034376;28;20211;-64
2022/11/16 11:10:27;;;;;;;7.30;2.80;;;;;;;;;;5034158;28;20180;-64
2022/11/16 11:13:06;;;;;;;10.73;3.30;;;;;;;;;;5034400;28;20191;-65
2022/11/16 11:15:32;;;;;;;10.03;3.20;;;;;;;;;;5034313;28;20282;-65
2022/11/16 11:18:10;;;;;;;4.43;2.27;;;;;;;;;;5032740;28;20213;-65
2022/11/16 11:20:37;;;;;;;7.97;2.77;;;;;;;;;;5034080;28;20210;-66
2022/11/16 11:23:10;;;;;;;9.63;2.83;;;;;;;;;;5034318;28;20585;-65
2022/11/16 11:25:40;;;;;;;8.50;2.77;;;;;;;;;;5032576;28;20237;-66
2022/11/16 11:28:27;;;;;;;6.30;2.70;;;;;;;;;;5032623;28;20187;-65
2022/11/16 11:31:01;;;;;;;10.53;2.57;;;;;;;;;;5034655;28;20213;-65
2022/11/16 11:33:32;;;;;;;12.63;2.70;;;;;;;;;;5032576;28;20188;-66
2022/11/16 11:36:03;;;;;;;7.40;2.20;;;;;;;;;;5032209;28;20219;-65
2022/11/16 11:38:29;;;;;;;6.97;2.23;;;;;;;;;;5034073;28;20159;-65
2022/11/16 11:40:57;;;;;;;9.33;2.30;;;;;;;;;;5034154;28;20186;-65
2022/11/16 11:43:24;;;;;;;5.27;2.20;;;;;;;;;;5033690;28;20183;-65
2022/11/16 11:45:53;;;;;;;8.20;2.80;;;;;;;;;;5033916;28;20199;-65
2022/11/16 11:48:46;;;;;;;9.27;2.50;;;;;;;;;;5032273;28;20179;-65
2022/11/16 11:51:33;;;;;;;7.03;2.73;;;;;;;;;;5034149;28;20212;-67
2022/11/16 11:54:00;;;;;;;7.00;2.43;;;;;;;;;;5032258;28;20202;-65
2022/11/16 11:56:29;;;;;;;10.90;2.33;;;;;;;;;;5033499;28;20241;-66
2022/11/16 11:58:55;;;;;;;6.73;2.33;;;;;;;;;;5032187;28;20269;-65
2022/11/16 12:01:29;;;;;;;9.97;2.40;;;;;;;;;;5033674;28;20175;-67
2022/11/16 12:04:07;;;;;;;5.00;2.27;;;;;;;;;;5032086;28;20217;-64
2022/11/16 12:06:33;;;;;;;10.90;2.80;;;;;;;;;;5033253;28;20202;-64
2022/11/16 12:09:10;;;;;;;7.97;2.63;;;;;;;;;;5031954;28;20742;-64
2022/11/16 12:11:36;;;;;;;7.23;2.50;;;;;;;;;;5033476;28;20221;-66
2022/11/16 12:14:08;;;;;;;9.53;2.53;;;;;;;;;;5033447;28;20175;-64
2022/11/16 12:16:37;;;;;;;8.67;2.10;;;;;;;;;;5031770;28;20214;-64
2022/11/16 12:19:13;;;;;;;6.70;2.47;;;;;;;;;;5031863;28;20187;-64
2022/11/16 12:21:42;;;;;;;9.67;2.47;;;;;;;;;;5033785;28;20281;-65
2022/11/16 12:24:23;;;;;;;6.10;2.20;;;;;;;;;;5031938;28;20233;-64
2022/11/16 12:27:05;;;;;;;11.07;3.30;;;;;;;;;;5032979;28;20229;-64
2022/11/16 12:29:46;;;;;;;11.53;2.43;;;;;;;;;;5033276;28;20195;-64
2022/11/16 12:32:15;;;;;;;6.23;3.17;;;;;;;;;;5032290;28;20175;-64
2022/11/16 12:34:44;;;;;;;7.73;2.60;;;;;;;;;;5032979;28;20206;-65
2022/11/16 12:37:16;;;;;;;7.60;3.03;;;;;;;;;;5033058;28;20641;-65
2022/11/16 12:39:54;;;;;;;5.77;2.40;;;;;;;;;;5035313;28;20180;-65
2022/11/16 12:42:31;;;;;;;10.83;2.80;;;;;;;;;;5036945;28;20175;-65
2022/11/16 12:45:17;;;;;;;7.23;3.43;;;;;;;;;;5035641;28;20178;-65
2022/11/16 12:48:02;;;;;;;12.70;2.73;;;;;;;;;;5036916;28;20199;-65
2022/11/16 12:50:28;;;;;;;8.27;2.53;;;;;;;;;;5037135;28;20178;-66
2022/11/16 12:52:54;;;;;;;8.77;2.73;;;;;;;;;;5036732;28;20179;-65
2022/11/16 12:55:23;;;;;;;9.43;3.40;;;;;;;;;;5035332;28;20211;-65
2022/11/16 12:57:55;;;;;;;7.77;3.00;;;;;;;;;;5036513;28;20191;-64
2022/11/16 13:00:21;;;;;;;7.10;2.60;;;;;;;;;;5037254;28;20528;-65
2022/11/16 13:02:58;;;;;;;9.60;3.20;;;;;;;;;;5035496;28;20183;-64
2022/11/16 13:05:24;;;;;;;6.43;2.87;;;;;;;;;;5036556;28;20187;-65
2022/11/16 13:07:53;;;;;;;9.27;3.10;;;;;;;;;;5035086;28;20238;-65
2022/11/16 13:10:28;;;;;;;10.63;3.13;;;;;;;;;;5036845;28;20179;-64
2022/11/16 13:12:57;;;;;;;7.63;2.87;;;;;;;;;;5036284;28;20181;-65
2022/11/16 13:15:27;;;;;;;7.63;2.60;;;;;;;;;;5036470;28;20230;-65
2022/11/16 13:17:58;;;;;;;7.47;2.70;;;;;;;;;;5036040;28;20204;-65
2022/11/16 13:20:38;;;;;;;9.60;2.57;;;;;;;;;;5036142;28;20175;-65
2022/11/16 13:23:08;;;;;;;8.70;3.10;;;;;;;;;;5036217;28;20266;-65
2022/11/16 13:25:42;;;;;;;9.03;2.80;;;;;;;;;;5035945;28;20175;-65
2022/11/16 13:28:08;;;;;;;9.00;2.83;;;;;;;;;;5036097;28;20269;-64
2022/11/16 13:30:56;;;;;;;8.67;3.13;;;;;;;;;;5036293;28;20258;-65
2022/11/16 13:33:22;;;;;;;6.73;3.00;;;;;;;;;;5036831;28;20564;-65
2022/11/16 13:35:48;;;;;;;5.53;2.47;;;;;;;;;;5035725;28;20211;-64
2022/11/16 13:38:14;;;;;;;8.07;2.73;;;;;;;;;;5036280;28;20181;-65
2022/11/16 13:40:40;;;;;;;7.07;3.43;;;;;;;;;;5035947;28;20175;-65
2022/11/16 13:43:09;;;;;;;7.67;2.50;;;;;;;;;;5036079;28;20198;-65
2022/11/16 13:45:41;;;;;;;9.00;2.67;;;;;;;;;;5035806;28;20644;-65
2022/11/16 13:48:27;;;;;;;8.67;2.83;;;;;;;;;;5036114;28;20189;-65
2022/11/16 13:50:57;;;;;;;8.37;3.17;;;;;;;;;;5034454;28;20167;-65
2022/11/16 13:53:30;;;;;;;9.17;3.30;;;;;;;;;;5036082;28;20266;-67
2022/11/16 13:55:58;;;;;;;6.33;2.97;;;;;;;;;;5035602;28;20215;-65
2022/11/16 13:58:24;;;;;;;7.00;2.60;;;;;;;;;;5035575;28;20179;-65
2022/11/16 14:00:59;;;;;;;10.07;2.67;;;;;;;;;;5034367;28;20714;-65
2022/11/16 14:03:27;;;;;;;7.00;2.20;;;;;;;;;;5035819;28;20179;-64
2022/11/16 14:05:53;;;;;;;8.00;2.23;;;;;;;;;;5035740;28;20198;-64
2022/11/16 14:08:19;;;;;;;6.90;2.60;;;;;;;;;;5034409;28;20278;-65
2022/11/16 14:10:51;;;;;;;7.20;2.70;;;;;;;;;;5035450;28;20671;-64
2022/11/16 14:13:39;;;;;;;9.37;2.40;;;;;;;;;;5035374;28;20598;-65
2022/11/16 14:16:12;;;;;;;8.47;2.60;;;;;;;;;;5033946;28;20218;-65
2022/11/16 14:18:38;;;;;;;4.80;2.00;;;;;;;;;;5035263;28;20206;-64
2022/11/16 14:21:16;;;;;;;4.93;2.00;;;;;;;;;;5035968;28;20178;-65
2022/11/16 14:23:58;;;;;;;8.73;2.80;;;;;;;;;;5035253;28;20175;-65
2022/11/16 14:26:43;;;;;;;5.33;1.90;;;;;;;;;;5034077;28;20689;-65
2022/11/16 14:29:14;;;;;;;7.87;2.67;;;;;;;;;;5035024;28;20202;-65
2022/11/16 14:31:57;;;;;;;5.93;2.50;;;;;;;;;;5033929;28;20187;-64
2022/11/16 14:34:23;;;;;;;5.87;1.90;;;;;;;;;;5035114;28;20262;-64
2022/11/16 14:36:49;;;;;;;5.97;1.93;;;;;;;;;;5033437;28;20632;-65
2022/11/16 14:39:29;;;;;;;3.80;2.00;;;;;;;;;;5034647;28;20179;-65
2022/11/16 14:42:02;;;;;;;5.77;2.20;;;;;;;;;;5035139;28;20207;-65
2022/11/16 14:44:30;;;;;;;7.30;2.03;;;;;;;;;;5034764;28;20269;-65
2022/11/16 14:46:56;;;;;;;9.53;2.17;;;;;;;;;;5034846;28;20222;-65
2022/11/16 14:49:24;;;;;;;6.77;2.03;;;;;;;;;;5034796;28;20172;-65
2022/11/16 14:51:56;;;;;;;7.27;2.60;;;;;;;;;;5034666;28;20182;-65
2022/11/16 14:54:38;;;;;;;10.37;5.83;;;;;;;;;;5035259;28;20285;-65
2022/11/16 14:57:18;;;;;;;5.73;1.87;;;;;;;;;;5033189;28;20218;-65
2022/11/16 14:59:44;;;;;;;9.63;2.30;;;;;;;;;;5033226;28;20682;-65
2022/11/16 15:02:15;;;;;;;6.17;2.03;;;;;;;;;;5034037;28;20178;-65
2022/11/16 15:04:41;;;;;;;8.83;2.17;;;;;;;;;;5058712;22;20289;-70
2022/11/16 15:07:07;;;;;;;9.33;2.60;;;;;;;;;;5034234;28;20245;-69
2022/11/16 15:09:35;;;;;;;6.93;2.50;;;;;;;;;;5034686;28;20179;-70
2022/11/16 15:14:51;;;;;;;4.83;2.13;;;;;;;;;;5034350;28;20264;-70
2022/11/16 15:17:22;;;;;;;6.23;2.17;;;;;;;;;;5034630;28;20678;-69
2022/11/16 15:19:58;;;;;;;9.10;3.40;;;;;;;;;;5034179;28;20183;-69
2022/11/16 15:22:26;;;;;;;6.07;2.90;;;;;;;;;;5034343;28;20178;-69
2022/11/16 15:24:56;;;;;;;8.43;2.40;;;;;;;;;;5033883;28;20201;-70